Time;durP1;ratioP1;P1;durP2;ratioP2;P2;SDS_P1;SDS_P2;PMS_P1;PMS_P2;Temp;Humidity;BMP_temperature;BMP_pressure;BME280_temperature;BME280_humidity;BME280_pressure;Samples;Min_cycle;Max_cycle;Signal;HPM_P1;HPM_P2
2023/03/06 00:02:25;;;;;;;;;;;7.60;54.80;;;;;;5073865;28;19909;-68
2023/03/06 00:04:52;;;;;;;;;;;7.70;54.80;;;;;;5073034;28;19908;-69
2023/03/06 00:07:17;;;;;;;;;;;7.60;54.80;;;;;;5073337;28;20270;-69
2023/03/06 00:09:43;;;;;;;;;;;7.70;54.80;;;;;;5073954;28;19915;-68
2023/03/06 00:12:08;;;;;;;;;;;7.60;54.80;;;;;;5073314;28;19929;-69
2023/03/06 00:14:34;;;;;;;;;;;7.70;54.90;;;;;;5072911;28;19916;-69
2023/03/06 00:17:00;;;;;;;;;;;7.60;54.90;;;;;;5072979;28;19913;-69
2023/03/06 00:19:26;;;;;;;;;;;7.60;54.90;;;;;;5073409;28;19909;-68
2023/03/06 00:21:51;;;;;;;;;;;7.60;54.90;;;;;;5073221;28;19915;-69
2023/03/06 00:24:17;;;;;;;;;;;7.60;54.80;;;;;;5071522;28;19909;-69
2023/03/06 00:26:42;;;;;;;;;;;7.60;54.80;;;;;;5073816;28;19915;-69
2023/03/06 00:29:08;;;;;;;;;;;7.60;54.80;;;;;;5072923;28;19908;-68
2023/03/06 00:31:34;;;;;;;;;;;7.60;54.90;;;;;;5073343;28;19991;-68
2023/03/06 00:34:00;;;;;;;;;;;7.60;54.90;;;;;;5072857;28;19920;-68
2023/03/06 00:36:26;;;;;;;;;;;7.60;54.90;;;;;;5072778;28;19917;-69
2023/03/06 00:38:51;;;;;;;;;;;7.60;54.90;;;;;;5073260;28;20365;-69
2023/03/06 00:41:17;;;;;;;;;;;7.60;54.90;;;;;;5072867;28;19909;-68
2023/03/06 00:43:42;;;;;;;;;;;7.60;54.90;;;;;;5072989;28;20396;-69
2023/03/06 00:46:08;;;;;;;;;;;7.60;54.90;;;;;;5072800;28;19916;-68
2023/03/06 00:48:33;;;;;;;;;;;7.60;54.90;;;;;;5073179;28;19909;-70
2023/03/06 00:50:59;;;;;;;;;;;7.50;54.90;;;;;;5073010;28;20385;-69
2023/03/06 00:53:25;;;;;;;;;;;7.60;54.90;;;;;;5072998;28;19915;-69
2023/03/06 00:55:51;;;;;;;;;;;7.50;54.90;;;;;;5072511;28;19913;-70
2023/03/06 00:58:16;;;;;;;;;;;7.50;54.90;;;;;;5072818;28;19916;-68
2023/03/06 01:00:42;;;;;;;;;;;7.50;54.90;;;;;;5073250;28;19909;-69
2023/03/06 01:03:07;;;;;;;;;;;7.50;54.90;;;;;;5072714;28;19944;-68
2023/03/06 01:05:34;;;;;;;;;;;7.60;55.00;;;;;;5072582;28;19968;-69
2023/03/06 01:08:00;;;;;;;;;;;7.60;55.60;;;;;;5071605;28;20011;-69
2023/03/06 01:10:26;;;;;;;;;;;7.50;55.00;;;;;;5072930;28;19999;-68
2023/03/06 01:12:52;;;;;;;;;;;7.50;55.50;;;;;;5072410;28;19920;-68
2023/03/06 01:15:17;;;;;;;;;;;7.50;54.90;;;;;;5072416;28;19975;-69
2023/03/06 01:17:43;;;;;;;;;;;7.50;54.90;;;;;;5071752;28;20373;-68
2023/03/06 01:20:11;;;;;;;;;;;7.50;55.00;;;;;;5072521;28;20023;-69
2023/03/06 01:22:37;;;;;;;;;;;7.50;55.00;;;;;;5072960;28;19908;-69
2023/03/06 01:25:02;;;;;;;;;;;7.50;55.00;;;;;;5070866;28;19922;-69
2023/03/06 01:27:28;;;;;;;;;;;7.50;55.00;;;;;;5072197;28;19962;-68
2023/03/06 01:29:54;;;;;;;;;;;7.50;55.00;;;;;;5073005;28;19912;-69
2023/03/06 01:32:20;;;;;;;;;;;7.50;55.00;;;;;;5072663;28;20354;-68
2023/03/06 01:34:45;;;;;;;;;;;7.50;55.00;;;;;;5072857;28;19918;-69
2023/03/06 01:37:11;;;;;;;;;;;7.50;55.00;;;;;;5072066;28;20003;-69
2023/03/06 01:39:36;;;;;;;;;;;7.50;55.00;;;;;;5072576;28;20255;-69
2023/03/06 01:42:02;;;;;;;;;;;7.50;55.00;;;;;;5072319;28;19913;-69
2023/03/06 01:44:27;;;;;;;;;;;7.50;55.00;;;;;;5073175;28;19909;-70
2023/03/06 01:46:53;;;;;;;;;;;7.50;55.00;;;;;;5072084;28;19913;-69
2023/03/06 01:49:20;;;;;;;;;;;7.50;55.00;;;;;;5073375;28;19924;-69
2023/03/06 01:51:48;;;;;;;;;;;7.50;55.00;;;;;;5076013;28;19915;-68
2023/03/06 01:54:17;;;;;;;;;;;7.50;55.00;;;;;;5075948;28;19994;-69
2023/03/06 01:56:43;;;;;;;;;;;7.50;55.00;;;;;;5075213;28;19949;-69
2023/03/06 01:59:09;;;;;;;;;;;7.50;55.00;;;;;;5075707;28;20400;-68
2023/03/06 02:01:36;;;;;;;;;;;7.50;55.00;;;;;;5076066;28;19952;-68
2023/03/06 02:04:02;;;;;;;;;;;7.50;55.00;;;;;;5074494;28;20005;-69
2023/03/06 02:06:28;;;;;;;;;;;7.50;55.10;;;;;;5075838;28;20351;-69
2023/03/06 02:08:54;;;;;;;;;;;7.50;55.00;;;;;;5075509;28;19935;-68
2023/03/06 02:11:21;;;;;;;;;;;7.50;55.00;;;;;;5075330;28;19921;-68
2023/03/06 02:13:47;;;;;;;;;;;7.50;55.10;;;;;;5075932;28;19917;-68
2023/03/06 02:16:13;;;;;;;;;;;7.50;55.10;;;;;;5075379;28;19955;-68
2023/03/06 02:18:40;;;;;;;;;;;7.50;55.10;;;;;;5075369;28;19958;-69
2023/03/06 02:21:08;;;;;;;;;;;7.50;55.10;;;;;;5075443;28;20306;-68
2023/03/06 02:23:49;;;;;;;;;;;7.50;55.00;;;;;;5075456;28;19908;-69
2023/03/06 02:26:15;;;;;;;;;;;7.50;55.10;;;;;;5075350;28;19999;-68
2023/03/06 02:28:40;;;;;;;;;;;7.50;55.10;;;;;;5075046;28;19992;-69
2023/03/06 02:31:07;;;;;;;;;;;7.50;55.10;;;;;;5075094;28;20338;-69
2023/03/06 02:33:32;;;;;;;;;;;7.50;55.10;;;;;;5075388;28;19974;-68
2023/03/06 02:35:59;;;;;;;;;;;7.50;55.70;;;;;;5073679;28;19916;-68
2023/03/06 02:38:51;;;;;;;;;;;7.50;55.10;;;;;;5074737;28;19912;-68
2023/03/06 02:41:17;;;;;;;;;;;7.50;55.10;;;;;;5072791;28;20344;-68
2023/03/06 02:43:44;;;;;;;;;;;7.50;55.10;;;;;;5075207;28;19912;-68
2023/03/06 02:46:10;;;;;;;;;;;7.50;55.10;;;;;;5074810;28;20297;-68
2023/03/06 02:48:35;;;;;;;;;;;7.50;55.00;;;;;;5074603;28;19919;-68
2023/03/06 02:51:01;;;;;;;;;;;7.50;55.10;;;;;;5074937;28;19913;-68
2023/03/06 02:53:27;;;;;;;;;;;7.50;55.10;;;;;;5075024;28;19916;-69
2023/03/06 02:55:52;;;;;;;;;;;7.50;55.10;;;;;;5074664;28;19917;-69
2023/03/06 02:58:18;;;;;;;;;;;7.50;55.10;;;;;;5074902;28;19932;-69
2023/03/06 03:00:44;;;;;;;;;;;7.50;55.10;;;;;;5074136;28;19954;-69
2023/03/06 03:03:10;;;;;;;;;;;7.50;55.10;;;;;;5074489;28;20382;-69
2023/03/06 03:05:35;;;;;;;;;;;7.50;55.10;;;;;;5074736;28;19955;-69
2023/03/06 03:08:01;;;;;;;;;;;7.50;55.10;;;;;;5074428;28;19912;-69
2023/03/06 03:10:26;;;;;;;;;;;7.50;55.10;;;;;;5074328;28;20385;-69
2023/03/06 03:12:52;;;;;;;;;;;7.50;55.10;;;;;;5074267;28;19921;-69
2023/03/06 03:15:18;;;;;;;;;;;7.50;55.10;;;;;;5073974;28;20363;-69
2023/03/06 03:17:43;;;;;;;;;;;7.50;55.10;;;;;;5074374;28;20376;-69
2023/03/06 03:20:11;;;;;;;;;;;7.50;55.10;;;;;;5073885;28;19924;-69
2023/03/06 03:22:36;;;;;;;;;;;7.50;55.10;;;;;;5073259;28;19909;-69
2023/03/06 03:25:03;;;;;;;;;;;7.50;55.10;;;;;;5073819;28;19962;-70
2023/03/06 03:27:28;;;;;;;;;;;7.50;55.10;;;;;;5074649;28;19915;-69
2023/03/06 03:29:56;;;;;;;;;;;7.50;55.10;;;;;;5073720;28;19912;-70
2023/03/06 03:32:22;;;;;;;;;;;7.50;55.10;;;;;;5074122;28;19995;-69
2023/03/06 03:34:48;;;;;;;;;;;7.50;55.10;;;;;;5074033;28;20015;-69
2023/03/06 03:37:13;;;;;;;;;;;7.50;55.20;;;;;;5074166;28;20437;-70
2023/03/06 03:39:39;;;;;;;;;;;7.50;55.10;;;;;;5074217;28;19916;-69
2023/03/06 03:42:04;;;;;;;;;;;7.50;55.10;;;;;;5073475;28;19908;-69
2023/03/06 03:44:30;;;;;;;;;;;7.50;55.20;;;;;;5073893;28;19971;-69
2023/03/06 03:46:55;;;;;;;;;;;7.50;55.10;;;;;;5073350;28;19909;-69
2023/03/06 03:49:21;;;;;;;;;;;7.50;55.10;;;;;;5073703;28;19923;-69
2023/03/06 03:51:46;;;;;;;;;;;7.50;55.10;;;;;;5073621;28;19912;-69
2023/03/06 03:54:12;;;;;;;;;;;7.50;55.20;;;;;;5073743;28;20366;-69
2023/03/06 03:56:39;;;;;;;;;;;7.50;55.10;;;;;;5074004;28;19919;-69
2023/03/06 03:59:05;;;;;;;;;;;7.50;55.10;;;;;;5073378;28;19967;-70
2023/03/06 04:01:31;;;;;;;;;;;7.50;55.20;;;;;;5071991;28;19913;-69
2023/03/06 04:03:56;;;;;;;;;;;7.50;55.20;;;;;;5072182;28;19991;-69
2023/03/06 04:06:22;;;;;;;;;;;7.50;55.20;;;;;;5073474;28;19908;-68
2023/03/06 04:08:47;;;;;;;;;;;7.50;55.20;;;;;;5073676;28;20385;-68
2023/03/06 04:11:13;;;;;;;;;;;7.50;55.20;;;;;;5072350;28;20369;-68
2023/03/06 04:13:39;;;;;;;;;;;7.50;55.10;;;;;;5073086;28;19920;-69
2023/03/06 04:16:05;;;;;;;;;;;7.50;55.20;;;;;;5073052;28;20279;-69
2023/03/06 04:18:30;;;;;;;;;;;7.50;55.10;;;;;;5073878;28;19916;-69
2023/03/06 04:20:56;;;;;;;;;;;7.50;55.20;;;;;;5073362;28;19917;-68
2023/03/06 04:23:23;;;;;;;;;;;7.50;55.10;;;;;;5071891;28;19908;-68
2023/03/06 04:25:48;;;;;;;;;;;7.50;55.20;;;;;;5072885;28;19908;-69
2023/03/06 04:28:14;;;;;;;;;;;7.50;55.20;;;;;;5073237;28;19909;-69
2023/03/06 04:30:40;;;;;;;;;;;7.50;55.20;;;;;;5073195;28;20285;-69
2023/03/06 04:33:05;;;;;;;;;;;7.50;55.20;;;;;;5072551;28;20011;-68
2023/03/06 04:35:31;;;;;;;;;;;7.50;55.20;;;;;;5073178;28;19912;-68
2023/03/06 04:37:56;;;;;;;;;;;7.50;55.20;;;;;;5073175;28;19913;-69
2023/03/06 04:40:26;;;;;;;;;;;7.50;55.20;;;;;;5073299;28;19916;-68
2023/03/06 04:42:51;;;;;;;;;;;7.50;55.20;;;;;;5072825;28;20328;-68
2023/03/06 04:45:17;;;;;;;;;;;7.50;55.20;;;;;;5072694;28;19912;-69
2023/03/06 04:47:42;;;;;;;;;;;7.50;55.20;;;;;;5073218;28;19909;-68
2023/03/06 04:50:09;;;;;;;;;;;7.50;55.20;;;;;;5071719;28;19913;-69
2023/03/06 04:52:34;;;;;;;;;;;7.50;55.20;;;;;;5072989;28;19913;-68
2023/03/06 04:55:00;;;;;;;;;;;7.50;55.20;;;;;;5072620;28;20255;-68
2023/03/06 04:57:25;;;;;;;;;;;7.50;55.20;;;;;;5072985;28;20259;-70
2023/03/06 04:59:51;;;;;;;;;;;7.50;55.20;;;;;;5072833;28;20354;-68
2023/03/06 05:02:17;;;;;;;;;;;7.50;55.20;;;;;;5071548;28;20385;-68
2023/03/06 05:04:42;;;;;;;;;;;7.50;55.20;;;;;;5072664;28;20281;-68
2023/03/06 05:07:08;;;;;;;;;;;7.50;55.20;;;;;;5072577;28;19909;-68
2023/03/06 05:09:34;;;;;;;;;;;7.50;55.20;;;;;;5072910;28;20015;-68
2023/03/06 05:11:59;;;;;;;;;;;7.50;55.20;;;;;;5072790;28;19933;-68
2023/03/06 05:14:27;;;;;;;;;;;7.50;55.20;;;;;;5072330;28;19923;-69
2023/03/06 05:16:53;;;;;;;;;;;7.50;55.20;;;;;;5072639;28;19921;-69
2023/03/06 05:19:18;;;;;;;;;;;7.50;55.10;;;;;;5072807;28;19928;-69
2023/03/06 05:21:44;;;;;;;;;;;7.60;55.30;;;;;;5072812;28;20278;-69
2023/03/06 05:24:09;;;;;;;;;;;7.50;55.10;;;;;;5074653;28;20030;-69
2023/03/06 05:26:35;;;;;;;;;;;7.60;55.20;;;;;;5075180;28;19915;-69
2023/03/06 05:29:00;;;;;;;;;;;7.60;55.20;;;;;;5076162;28;19909;-68
2023/03/06 05:31:26;;;;;;;;;;;7.60;55.20;;;;;;5076177;28;19916;-68
2023/03/06 05:33:51;;;;;;;;;;;7.60;55.20;;;;;;5075786;28;20338;-70
2023/03/06 05:36:17;;;;;;;;;;;7.60;55.10;;;;;;5076166;28;19912;-69
2023/03/06 05:38:42;;;;;;;;;;;7.60;55.10;;;;;;5076505;28;19967;-69
2023/03/06 05:41:10;;;;;;;;;;;7.60;55.10;;;;;;5075957;28;20008;-69
2023/03/06 05:43:35;;;;;;;;;;;7.60;55.10;;;;;;5076178;28;19912;-69
2023/03/06 05:46:02;;;;;;;;;;;7.60;55.10;;;;;;5074221;28;19914;-69
2023/03/06 05:48:28;;;;;;;;;;;7.60;55.10;;;;;;5076203;28;19995;-68
2023/03/06 05:50:55;;;;;;;;;;;7.70;55.10;;;;;;5075566;28;19947;-70
2023/03/06 05:53:20;;;;;;;;;;;7.70;55.10;;;;;;5074668;28;19909;-68
2023/03/06 05:55:54;;;;;;;;;;;7.70;55.00;;;;;;5075546;28;19913;-69
2023/03/06 05:58:19;;;;;;;;;;;7.70;55.00;;;;;;5074456;28;19919;-68
2023/03/06 06:00:45;;;;;;;;;;;7.80;55.00;;;;;;5075905;28;19909;-68
2023/03/06 06:03:10;;;;;;;;;;;7.80;55.00;;;;;;5075365;28;19932;-69
2023/03/06 06:05:37;;;;;;;;;;;7.80;54.90;;;;;;5075259;28;19917;-69
2023/03/06 06:08:03;;;;;;;;;;;7.80;54.90;;;;;;5073885;28;20423;-70
2023/03/06 06:10:28;;;;;;;;;;;7.90;54.90;;;;;;5074301;28;19948;-69
2023/03/06 06:12:54;;;;;;;;;;;7.90;54.90;;;;;;5074808;28;19947;-78
2023/03/06 06:15:19;;;;;;;;;;;7.90;54.90;;;;;;5073758;28;19931;-80
2023/03/06 06:17:45;;;;;;;;;;;7.90;55.00;;;;;;5074570;28;19913;-71
2023/03/06 06:20:11;;;;;;;;;;;7.90;55.50;;;;;;5075432;28;19913;-74
2023/03/06 06:22:37;;;;;;;;;;;8.00;56.30;;;;;;5074332;28;19943;-72
2023/03/06 06:25:03;;;;;;;;;;;8.00;56.20;;;;;;5074723;28;19954;-72
2023/03/06 06:27:28;;;;;;;;;;;8.10;55.90;;;;;;5074833;28;19916;-76
2023/03/06 06:29:54;;;;;;;;;;;8.20;55.90;;;;;;5075019;28;19952;-72
2023/03/06 06:32:19;;;;;;;;;;;8.20;55.90;;;;;;5075106;28;20003;-70
2023/03/06 06:34:45;;;;;;;;;;;8.30;56.50;;;;;;5074460;28;19916;-71
2023/03/06 06:37:11;;;;;;;;;;;8.30;55.80;;;;;;5073307;28;19916;-71
2023/03/06 06:39:36;;;;;;;;;;;8.40;55.80;;;;;;5074987;28;19915;-72
2023/03/06 06:42:02;;;;;;;;;;;8.40;55.70;;;;;;5074563;28;20286;-71
2023/03/06 06:44:27;;;;;;;;;;;8.50;55.70;;;;;;5074771;28;19909;-70
2023/03/06 06:46:53;;;;;;;;;;;8.50;55.50;;;;;;5074671;28;19938;-70
2023/03/06 06:49:18;;;;;;;;;;;8.50;55.50;;;;;;5074792;28;19913;-71
2023/03/06 06:51:44;;;;;;;;;;;8.60;55.50;;;;;;5074802;28;20362;-70
2023/03/06 06:54:10;;;;;;;;;;;8.60;55.40;;;;;;5068312;28;20359;-69
2023/03/06 06:56:36;;;;;;;;;;;8.70;55.40;;;;;;5061496;28;19920;-70
2023/03/06 06:59:01;;;;;;;;;;;8.70;55.30;;;;;;5065274;28;19908;-70
2023/03/06 07:01:27;;;;;;;;;;;8.70;55.20;;;;;;5069229;28;20454;-70
2023/03/06 07:03:53;;;;;;;;;;;8.80;55.20;;;;;;5062671;28;19985;-70
2023/03/06 07:06:18;;;;;;;;;;;8.80;55.10;;;;;;5062390;28;19939;-71
2023/03/06 07:08:44;;;;;;;;;;;8.80;55.00;;;;;;5063615;28;19909;-69
2023/03/06 07:11:11;;;;;;;;;;;8.90;55.00;;;;;;5053709;28;19925;-73
2023/03/06 07:13:37;;;;;;;;;;;8.90;54.90;;;;;;5054873;28;19928;-74
2023/03/06 07:16:02;;;;;;;;;;;8.90;55.50;;;;;;5054744;28;19913;-74
2023/03/06 07:18:28;;;;;;;;;;;9.00;54.90;;;;;;5052999;28;19996;-77
2023/03/06 07:20:53;;;;;;;;;;;9.00;54.80;;;;;;5053240;28;20436;-72
2023/03/06 07:23:19;;;;;;;;;;;9.00;54.70;;;;;;5052894;28;19919;-75
2023/03/06 07:25:44;;;;;;;;;;;9.00;54.70;;;;;;5069899;28;19912;-78
2023/03/06 07:28:10;;;;;;;;;;;9.10;54.70;;;;;;5074556;28;20312;-76
2023/03/06 07:30:35;;;;;;;;;;;9.10;54.70;;;;;;5074801;28;19934;-75
2023/03/06 07:33:01;;;;;;;;;;;9.10;54.60;;;;;;5074477;28;20401;-76
2023/03/06 07:35:27;;;;;;;;;;;9.10;54.60;;;;;;5074130;28;19935;-75
2023/03/06 07:37:52;;;;;;;;;;;9.20;54.60;;;;;;5063640;28;20086;-76
2023/03/06 07:40:19;;;;;;;;;;;9.20;54.50;;;;;;5053867;28;19909;-76
2023/03/06 07:42:44;;;;;;;;;;;9.20;54.50;;;;;;5054133;28;19913;-75
2023/03/06 07:45:11;;;;;;;;;;;9.30;54.50;;;;;;5053774;28;19909;-76
2023/03/06 07:47:37;;;;;;;;;;;9.30;54.50;;;;;;5059518;28;20054;-74
2023/03/06 07:50:05;;;;;;;;;;;9.30;54.40;;;;;;5060179;28;20111;-73
2023/03/06 07:52:31;;;;;;;;;;;9.30;54.30;;;;;;5061846;28;19931;-81
2023/03/06 07:54:56;;;;;;;;;;;9.30;54.90;;;;;;5052829;28;19913;-78
2023/03/06 07:57:22;;;;;;;;;;;9.40;55.90;;;;;;5053834;28;19913;-76
2023/03/06 07:59:47;;;;;;;;;;;9.50;55.50;;;;;;5053260;28;19923;-74
2023/03/06 08:02:13;;;;;;;;;;;9.50;55.50;;;;;;5060260;28;19938;-79
2023/03/06 08:04:38;;;;;;;;;;;9.60;55.50;;;;;;5064096;28;19912;-77
2023/03/06 08:07:04;;;;;;;;;;;9.60;55.40;;;;;;5071697;28;20314;-73
2023/03/06 08:09:30;;;;;;;;;;;9.60;55.30;;;;;;5073118;28;19931;-73
2023/03/06 08:11:55;;;;;;;;;;;9.60;55.20;;;;;;5070675;28;20760;-83
2023/03/06 08:14:21;;;;;;;;;;;9.60;55.20;;;;;;5062198;28;20015;-86
2023/03/06 08:17:07;;;;;;;;;;;9.60;55.20;;;;;;5064931;28;20050;-75
2023/03/06 08:19:33;;;;;;;;;;;9.70;55.20;;;;;;5076999;28;19952;-83
2023/03/06 08:21:58;;;;;;;;;;;9.70;55.10;;;;;;5059618;28;19963;-81
2023/03/06 08:24:24;;;;;;;;;;;9.80;55.00;;;;;;5055479;28;20005;-79
2023/03/06 08:26:49;;;;;;;;;;;9.90;54.90;;;;;;5056041;28;20008;-81
2023/03/06 08:29:15;;;;;;;;;;;9.90;54.90;;;;;;5054210;28;20321;-82
2023/03/06 08:31:44;;;;;;;;;;;9.90;54.70;;;;;;5062820;28;19987;-79
2023/03/06 08:34:11;;;;;;;;;;;9.90;54.70;;;;;;5065519;28;20097;-80
2023/03/06 08:36:37;;;;;;;;;;;10.00;54.60;;;;;;5068298;28;19909;-79
2023/03/06 08:39:03;;;;;;;;;;;9.90;54.50;;;;;;5052823;28;20363;-78
2023/03/06 08:41:29;;;;;;;;;;;9.90;54.40;;;;;;5068894;28;19913;-79
2023/03/06 08:43:54;;;;;;;;;;;10.00;54.50;;;;;;5058882;28;19912;-78
2023/03/06 08:46:22;;;;;;;;;;;10.00;54.50;;;;;;5072041;28;19915;-76
2023/03/06 08:48:47;;;;;;;;;;;10.00;54.40;;;;;;5071783;28;19909;-81
2023/03/06 08:51:13;;;;;;;;;;;10.00;54.40;;;;;;5065739;28;19999;-77
2023/03/06 08:53:39;;;;;;;;;;;9.90;54.20;;;;;;5053914;28;19915;-74
2023/03/06 08:56:05;;;;;;;;;;;9.90;54.20;;;;;;5067265;28;19908;-72
2023/03/06 08:58:30;;;;;;;;;;;9.80;54.20;;;;;;5057400;28;19919;-74
2023/03/06 09:00:56;;;;;;;;;;;9.70;54.50;;;;;;5056199;28;20267;-74
2023/03/06 09:03:22;;;;;;;;;;;9.70;54.80;;;;;;5055993;28;19968;-74
2023/03/06 09:05:48;;;;;;;;;;;9.70;54.90;;;;;;5057516;28;19940;-72
2023/03/06 09:08:13;;;;;;;;;;;9.70;55.00;;;;;;5057714;28;19909;-73
2023/03/06 09:10:39;;;;;;;;;;;9.70;55.00;;;;;;5057323;28;20389;-73
2023/03/06 09:13:05;;;;;;;;;;;9.70;55.00;;;;;;5057667;28;20047;-72
2023/03/06 09:15:30;;;;;;;;;;;9.80;55.00;;;;;;5057248;28;19917;-73
2023/03/06 09:17:56;;;;;;;;;;;9.90;55.00;;;;;;5057635;28;19995;-73
2023/03/06 09:20:21;;;;;;;;;;;9.90;54.90;;;;;;5056028;28;20438;-74
2023/03/06 09:22:47;;;;;;;;;;;10.00;54.80;;;;;;5057802;28;19960;-72
2023/03/06 09:25:13;;;;;;;;;;;10.10;54.70;;;;;;5057498;28;20251;-71
2023/03/06 09:27:39;;;;;;;;;;;10.10;54.60;;;;;;5057290;28;19943;-73
2023/03/06 09:30:05;;;;;;;;;;;10.20;54.50;;;;;;5055802;28;19908;-72
2023/03/06 09:32:30;;;;;;;;;;;10.30;54.50;;;;;;5057195;28;19995;-73
2023/03/06 09:34:56;;;;;;;;;;;10.30;54.30;;;;;;5057005;28;20024;-73
2023/03/06 09:37:21;;;;;;;;;;;10.40;54.20;;;;;;5056097;28;20003;-73
2023/03/06 09:39:47;;;;;;;;;;;10.40;54.10;;;;;;5057174;28;19916;-73
2023/03/06 09:42:15;;;;;;;;;;;10.40;54.00;;;;;;5057167;28;19915;-73
2023/03/06 09:44:42;;;;;;;;;;;10.40;54.00;;;;;;5057199;28;19955;-73
2023/03/06 09:47:13;;;;;;;;;;;10.40;53.90;;;;;;5056823;28;19909;-73
2023/03/06 09:49:49;;;;;;;;;;;10.40;54.20;;;;;;5056798;28;19919;-73
2023/03/06 09:52:23;;;;;;;;;;;10.40;53.80;;;;;;5056854;28;19940;-73
2023/03/06 09:54:53;;;;;;;;;;;10.40;53.80;;;;;;5055781;28;19921;-73
2023/03/06 09:57:18;;;;;;;;;;;10.30;53.80;;;;;;5055390;28;19977;-73
2023/03/06 09:59:46;;;;;;;;;;;10.30;53.80;;;;;;5055552;28;19909;-73
2023/03/06 10:02:27;;;;;;;;;;;10.30;53.80;;;;;;5056678;28;19908;-73
2023/03/06 10:04:59;;;;;;;;;;;10.20;53.80;;;;;;5057058;28;20000;-74
2023/03/06 10:07:32;;;;;;;;;;;10.20;53.80;;;;;;5056625;28;19909;-75
2023/03/06 10:10:02;;;;;;;;;;;10.20;53.90;;;;;;5054148;28;19915;-73
2023/03/06 10:12:32;;;;;;;;;;;10.20;53.90;;;;;;5054863;28;20397;-73
2023/03/06 10:15:10;;;;;;;;;;;10.20;53.90;;;;;;5055163;28;19921;-71
2023/03/06 10:17:37;;;;;;;;;;;10.20;53.90;;;;;;5056756;28;20358;-72
2023/03/06 10:20:09;;;;;;;;;;;10.10;53.90;;;;;;5056616;28;19916;-72
2023/03/06 10:22:42;;;;;;;;;;;10.10;54.00;;;;;;5055137;28;19916;-73
2023/03/06 10:25:07;;;;;;;;;;;10.10;54.00;;;;;;5056291;28;19919;-73
2023/03/06 10:27:42;;;;;;;;;;;10.10;54.00;;;;;;5056738;28;19909;-72
2023/03/06 10:30:11;;;;;;;;;;;10.20;54.10;;;;;;5056017;28;19909;-73
2023/03/06 10:32:36;;;;;;;;;;;10.20;54.00;;;;;;5056162;28;19913;-73
2023/03/06 10:35:10;;;;;;;;;;;10.20;54.10;;;;;;5054498;28;20247;-73
2023/03/06 10:37:36;;;;;;;;;;;10.30;54.00;;;;;;5056010;28;19915;-72
2023/03/06 10:40:05;;;;;;;;;;;10.40;53.90;;;;;;5055852;28;19987;-72
2023/03/06 10:42:30;;;;;;;;;;;10.40;53.80;;;;;;5055958;28;19909;-73
2023/03/06 10:45:06;;;;;;;;;;;10.50;53.80;;;;;;5056217;28;19916;-73
2023/03/06 10:47:34;;;;;;;;;;;10.50;53.70;;;;;;5055747;28;19915;-73
2023/03/06 10:50:00;;;;;;;;;;;10.60;54.20;;;;;;5054568;28;19913;-73
2023/03/06 10:52:30;;;;;;;;;;;10.60;53.60;;;;;;5054981;28;19912;-73
2023/03/06 10:55:31;;;;;;;;;;;10.60;53.50;;;;;;5055603;28;19975;-73
2023/03/06 10:58:15;;;;;;;;;;;10.60;53.40;;;;;;5013778;28;19910;-73
2023/03/06 11:00:40;;;;;;;;;;;10.60;53.30;;;;;;5051706;28;19908;-72
2023/03/06 11:03:06;;;;;;;;;;;10.60;53.40;;;;;;5055596;28;20363;-73
2023/03/06 11:05:31;;;;;;;;;;;10.50;53.30;;;;;;5055782;28;19908;-72
2023/03/06 11:07:58;;;;;;;;;;;10.50;53.40;;;;;;5055627;28;20003;-73
2023/03/06 11:10:24;;;;;;;;;;;10.50;53.40;;;;;;5055441;28;20397;-72
2023/03/06 11:13:19;;;;;;;;;;;10.50;53.50;;;;;;5053750;28;19924;-73
2023/03/06 11:15:54;;;;;;;;;;;10.50;53.50;;;;;;5044880;28;19928;-71
2023/03/06 11:18:26;;;;;;;;;;;10.50;53.50;;;;;;5055228;28;19994;-74
2023/03/06 11:20:53;;;;;;;;;;;10.50;53.50;;;;;;5055462;28;20299;-73
2023/03/06 11:23:39;;;;;;;;;;;10.50;53.50;;;;;;5055169;28;19913;-73
2023/03/06 11:26:05;;;;;;;;;;;10.60;53.50;;;;;;5055048;28;19909;-71
2023/03/06 11:28:37;;;;;;;;;;;10.60;53.40;;;;;;5054891;28;19916;-74
2023/03/06 11:31:07;;;;;;;;;;;10.60;53.40;;;;;;5053660;28;20354;-76
2023/03/06 11:33:46;;;;;;;;;;;10.60;53.30;;;;;;5054995;28;19909;-74
2023/03/06 11:36:14;;;;;;;;;;;10.60;53.30;;;;;;5055092;28;19959;-73
2023/03/06 11:38:48;;;;;;;;;;;10.70;53.30;;;;;;5054835;28;19958;-72
2023/03/06 11:41:25;;;;;;;;;;;10.70;53.30;;;;;;5054882;28;19909;-74
2023/03/06 11:44:11;;;;;;;;;;;10.70;53.20;;;;;;5054953;28;19916;-72
2023/03/06 11:46:38;;;;;;;;;;;10.70;53.20;;;;;;5033462;28;19913;-73
2023/03/06 11:49:12;;;;;;;;;;;10.70;53.20;;;;;;5054790;28;19909;-73
2023/03/06 11:51:43;;;;;;;;;;;10.60;53.20;;;;;;5055868;28;19909;-73
2023/03/06 11:54:11;;;;;;;;;;;10.70;53.30;;;;;;5074352;28;20024;-74
2023/03/06 11:56:57;;;;;;;;;;;10.70;53.30;;;;;;5072541;28;19915;-74
2023/03/06 11:59:32;;;;;;;;;;;10.70;53.20;;;;;;5074612;28;19909;-73
2023/03/06 12:02:16;;;;;;;;;;;10.70;53.10;;;;;;5074593;28;19909;-72
2023/03/06 12:04:52;;;;;;;;;;;10.70;53.10;;;;;;5072856;28;19909;-74
2023/03/06 12:07:21;;;;;;;;;;;10.70;53.20;;;;;;5074498;28;20346;-73
2023/03/06 12:10:05;;;;;;;;;;;10.70;53.20;;;;;;5074450;28;19915;-73
2023/03/06 12:12:30;;;;;;;;;;;10.70;53.20;;;;;;5072707;28;19928;-73
2023/03/06 12:15:02;;;;;;;;;;;10.70;53.10;;;;;;5074388;28;19920;-73
2023/03/06 12:17:27;;;;;;;;;;;10.70;53.20;;;;;;5073324;28;19995;-73
2023/03/06 12:19:59;;;;;;;;;;;10.80;53.20;;;;;;5072949;28;19982;-73
2023/03/06 12:22:30;;;;;;;;;;;10.80;53.20;;;;;;5074105;28;19948;-73
2023/03/06 12:24:59;;;;;;;;;;;10.90;53.10;;;;;;5074316;28;19908;-73
2023/03/06 12:27:24;;;;;;;;;;;10.90;53.00;;;;;;5073966;28;19913;-72
2023/03/06 12:29:56;;;;;;;;;;;11.00;53.00;;;;;;5072579;28;19964;-73
2023/03/06 12:32:43;;;;;;;;;;;11.00;52.90;;;;;;5073447;28;19908;-73
2023/03/06 12:35:21;;;;;;;;;;;11.00;52.90;;;;;;5074095;28;19970;-73
2023/03/06 12:38:05;;;;;;;;;;;11.00;52.80;;;;;;5072851;28;19954;-72
2023/03/06 12:40:49;;;;;;;;;;;11.10;52.80;;;;;;5073734;28;19916;-72
2023/03/06 12:43:23;;;;;;;;;;;11.10;52.70;;;;;;5073999;28;19909;-73
2023/03/06 12:45:54;;;;;;;;;;;11.00;52.70;;;;;;5073761;28;19915;-72
2023/03/06 12:48:21;;;;;;;;;;;11.10;52.80;;;;;;5074017;28;20021;-73
2023/03/06 12:50:47;;;;;;;;;;;11.10;52.70;;;;;;5072603;28;20270;-73
2023/03/06 12:53:22;;;;;;;;;;;11.10;52.70;;;;;;5074537;28;20361;-73
2023/03/06 12:55:48;;;;;;;;;;;11.10;52.70;;;;;;5074231;28;20017;-72
2023/03/06 12:58:29;;;;;;;;;;;11.10;52.70;;;;;;5072810;28;20286;-73
2023/03/06 13:01:24;;;;;;;;;;;11.10;52.70;;;;;;5073940;28;19958;-71
2023/03/06 13:04:09;;;;;;;;;;;11.10;52.60;;;;;;5072565;28;19908;-73
2023/03/06 13:06:43;;;;;;;;;;;11.00;52.60;;;;;;5073662;28;19915;-74
2023/03/06 13:09:18;;;;;;;;;;;11.00;52.60;;;;;;5073962;28;19962;-73
2023/03/06 13:12:02;;;;;;;;;;;11.00;52.60;;;;;;5072037;28;19967;-72
2023/03/06 13:14:36;;;;;;;;;;;10.90;52.60;;;;;;5073447;28;20472;-73
2023/03/06 13:17:20;;;;;;;;;;;10.90;52.70;;;;;;5073726;28;19908;-73
2023/03/06 13:19:47;;;;;;;;;;;10.90;52.70;;;;;;5072184;28;19955;-73
2023/03/06 13:22:13;;;;;;;;;;;10.90;52.80;;;;;;5073349;28;19913;-73
2023/03/06 13:24:39;;;;;;;;;;;10.90;52.80;;;;;;5072334;28;19912;-73
2023/03/06 13:27:05;;;;;;;;;;;11.00;52.90;;;;;;5073543;28;20366;-71
2023/03/06 13:29:36;;;;;;;;;;;11.10;52.90;;;;;;5072555;28;19908;-72
2023/03/06 13:32:02;;;;;;;;;;;11.10;52.90;;;;;;5073066;28;19908;-73
2023/03/06 13:34:30;;;;;;;;;;;11.20;52.70;;;;;;5073741;28;19939;-75
2023/03/06 13:37:14;;;;;;;;;;;11.30;52.60;;;;;;5073712;28;19912;-73
2023/03/06 13:40:06;;;;;;;;;;;11.30;52.50;;;;;;5072039;28;19919;-73
2023/03/06 13:42:35;;;;;;;;;;;11.40;52.50;;;;;;5071372;28;19908;-72
2023/03/06 13:45:12;;;;;;;;;;;11.30;52.30;;;;;;5075520;28;19915;-74
2023/03/06 13:47:49;;;;;;;;;;;11.40;52.40;;;;;;5075859;28;19908;-72
2023/03/06 13:50:18;;;;;;;;;;;11.30;52.30;;;;;;5077031;28;20015;-73
2023/03/06 13:52:54;;;;;;;;;;;11.30;52.30;;;;;;5076842;28;20262;-72
2023/03/06 13:55:32;;;;;;;;;;;11.30;52.30;;;;;;5076546;28;19966;-72
2023/03/06 13:58:13;;;;;;;;;;;11.20;52.30;;;;;;5076712;28;20334;-71
2023/03/06 14:00:57;;;;;;;;;;;11.20;52.30;;;;;;5075634;28;19908;-73
2023/03/06 14:03:23;;;;;;;;;;;11.10;52.30;;;;;;5076495;28;19947;-72
2023/03/06 14:05:50;;;;;;;;;;;11.00;52.30;;;;;;5076337;28;19960;-73
2023/03/06 14:08:17;;;;;;;;;;;10.90;52.40;;;;;;5076353;28;19985;-73
2023/03/06 14:10:43;;;;;;;;;;;10.90;52.50;;;;;;5075377;28;20297;-73
2023/03/06 14:13:29;;;;;;;;;;;10.80;52.50;;;;;;5076403;28;20420;-74
2023/03/06 14:15:55;;;;;;;;;;;10.70;52.50;;;;;;5064236;28;19916;-72
2023/03/06 14:18:23;;;;;;;;;;;10.70;52.60;;;;;;5076093;28;19909;-72
2023/03/06 14:20:52;;;;;;;;;;;10.60;52.70;;;;;;5075211;28;19913;-72
2023/03/06 14:23:22;;;;;;;;;;;10.60;52.80;;;;;;5075989;28;19966;-72
2023/03/06 14:25:56;;;;;;;;;;;10.50;52.80;;;;;;5074725;28;20420;-72
2023/03/06 14:28:23;;;;;;;;;;;10.50;52.90;;;;;;5076613;28;20000;-73
2023/03/06 14:30:49;;;;;;;;;;;10.40;52.90;;;;;;5075700;28;19913;-73
2023/03/06 14:33:34;;;;;;;;;;;10.40;53.00;;;;;;5075158;28;19927;-73